Home > Products > Valid Products > TAF

000
FTUS43 KDMX 230520
TAFMCW
TAF
KMCW 230520Z 2306/2406 18005KT P6SM BKN250
     FM231500 17012KT P6SM SCT120 BKN250
     FM240300 14008KT P6SM VCSH SCT035 OVC070=



000
FTUS43 KDMX 230520
TAFOTM
TAF
KOTM 230520Z 2306/2406 17005KT P6SM SCT250
      TEMPO 2311/2313 5SM BR
     FM231600 17010KT P6SM FEW120 BKN250
     FM240100 14007KT P6SM OVC100=



000
FTUS43 KDMX 230520
TAFFOD
TAF
KFOD 230520Z 2306/2406 16003KT P6SM BKN250
     FM231500 17011KT P6SM SCT120 BKN250
     FM232200 17011KT P6SM SCT060 OVC120
     FM240100 16007KT P6SM -SHRA SCT025 OVC060=



000
FTUS43 KDMX 230520
TAFDSM
TAF
KDSM 230520Z 2306/2406 16005KT P6SM BKN250
     FM231600 17011KT P6SM SCT120 BKN250
     FM240100 14007KT P6SM -SHRA SCT030 OVC070=



000
FTUS43 KDMX 230520
TAFALO
TAF
KALO 230520Z 2306/2406 15004KT P6SM SCT250
     FM231600 17011KT P6SM SCT120 BKN250
     FM240100 14005KT P6SM BKN100 OVC250=



000
FTUS43 KDMX 230520
TAFDSM
TAF
KDSM 230520Z 2306/2406 16005KT P6SM BKN250
     FM231600 17011KT P6SM SCT120 BKN250
     FM240100 14007KT P6SM -SHRA SCT030 OVC070=



000
FTUS43 KDMX 230520
TAFMCW
TAF
KMCW 230520Z 2306/2406 18005KT P6SM BKN250
     FM231500 17012KT P6SM SCT120 BKN250
     FM240300 14008KT P6SM VCSH SCT035 OVC070=



000
FTUS43 KDMX 230520
TAFOTM
TAF
KOTM 230520Z 2306/2406 17005KT P6SM SCT250
      TEMPO 2311/2313 5SM BR
     FM231600 17010KT P6SM FEW120 BKN250
     FM240100 14007KT P6SM OVC100=



000
FTUS43 KDMX 230520
TAFALO
TAF
KALO 230520Z 2306/2406 15004KT P6SM SCT250
     FM231600 17011KT P6SM SCT120 BKN250
     FM240100 14005KT P6SM BKN100 OVC250=



000
FTUS43 KDMX 230520
TAFFOD
TAF
KFOD 230520Z 2306/2406 16003KT P6SM BKN250
     FM231500 17011KT P6SM SCT120 BKN250
     FM232200 17011KT P6SM SCT060 OVC120
     FM240100 16007KT P6SM -SHRA SCT025 OVC060=



000
FTUS43 KDMX 222335
TAFFOD
TAF
KFOD 222335Z 2300/2324 19004KT P6SM BKN250
     FM231500 17011KT P6SM SCT120 BKN250
     FM232200 17011KT P6SM SCT060 OVC120=



000
FTUS43 KDMX 222335
TAFFOD
TAF
KFOD 222335Z 2300/2324 19004KT P6SM BKN250
     FM231500 17011KT P6SM SCT120 BKN250
     FM232200 17011KT P6SM SCT060 OVC120=



000
FTUS43 KDMX 222335
TAFOTM
TAF
KOTM 222335Z 2300/2324 17003KT P6SM SCT250
     FM231600 17010KT P6SM FEW120 BKN250=



000
FTUS43 KDMX 222335
TAFALO
TAF
KALO 222335Z 2300/2324 20004KT P6SM SCT250
     FM231600 17011KT P6SM SCT120 BKN250=



000
FTUS43 KDMX 222335
TAFMCW
TAF
KMCW 222335Z 2300/2324 20003KT P6SM SCT250
     FM231500 17012KT P6SM SCT120 BKN250=



000
FTUS43 KDMX 222335
TAFALO
TAF
KALO 222335Z 2300/2324 20004KT P6SM SCT250
     FM231600 17011KT P6SM SCT120 BKN250=



000
FTUS43 KDMX 222335
TAFDSM
TAF
KDSM 222335Z 2300/2324 18005KT P6SM BKN250
     FM231600 17011KT P6SM SCT120 BKN250=



000
FTUS43 KDMX 222335
TAFDSM
TAF
KDSM 222335Z 2300/2324 18005KT P6SM BKN250
     FM231600 17011KT P6SM SCT120 BKN250=



000
FTUS43 KDMX 222335
TAFOTM
TAF
KOTM 222335Z 2300/2324 17003KT P6SM SCT250
     FM231600 17010KT P6SM FEW120 BKN250=



000
FTUS43 KDMX 222335
TAFMCW
TAF
KMCW 222335Z 2300/2324 20003KT P6SM SCT250
     FM231500 17012KT P6SM SCT120 BKN250=



000
FTUS43 KDMX 221728
TAFFOD
TAF
KFOD 221728Z 2218/2318 21005KT P6SM SKC
     FM231500 18011KT P6SM SKC=



000
FTUS43 KDMX 221728
TAFDSM
TAF
KDSM 221728Z 2218/2318 VRB03KT P6SM FEW250
     FM231500 17010KT P6SM SCT250=



000
FTUS43 KDMX 221728
TAFOTM
TAF
KOTM 221728Z 2218/2318 VRB05KT P6SM SKC
     FM231500 19010KT P6SM SKC=



000
FTUS43 KDMX 221728
TAFMCW
TAF
KMCW 221728Z 2218/2318 22007KT P6SM SKC
     FM231500 18011KT P6SM SKC=



000
FTUS43 KDMX 221728
TAFALO
TAF
KALO 221728Z 2218/2318 VRB04KT P6SM SKC
     FM231500 17010KT P6SM SKC=



000
FTUS43 KDMX 221728
TAFFOD
TAF
KFOD 221728Z 2218/2318 21005KT P6SM SKC
     FM231500 18011KT P6SM SKC=



000
FTUS43 KDMX 221728
TAFDSM
TAF
KDSM 221728Z 2218/2318 VRB03KT P6SM FEW250
     FM231500 17010KT P6SM SCT250=



000
FTUS43 KDMX 221728
TAFOTM
TAF
KOTM 221728Z 2218/2318 VRB05KT P6SM SKC
     FM231500 19010KT P6SM SKC=



000
FTUS43 KDMX 221728
TAFMCW
TAF
KMCW 221728Z 2218/2318 22007KT P6SM SKC
     FM231500 18011KT P6SM SKC=



000
FTUS43 KDMX 221728
TAFALO
TAF
KALO 221728Z 2218/2318 VRB04KT P6SM SKC
     FM231500 17010KT P6SM SKC=



000
FTUS43 KDMX 221302 AAA
TAFFOD
TAF AMD
KFOD 221302Z 2213/2312 24005KT P6SM SCT050
     FM230600 18003KT P6SM SKC=



000
FTUS43 KDMX 221302 AAA
TAFFOD
TAF AMD
KFOD 221302Z 2213/2312 24005KT P6SM SCT050
     FM230600 18003KT P6SM SKC=



000
FTUS43 KDMX 221302 AAA
TAFMCW
TAF AMD
KMCW 221302Z 2213/2312 24006KT P6SM SCT040
     FM230800 19004KT P6SM SKC=



000
FTUS43 KDMX 221301 AAA
TAFALO
TAF AMD
KALO 221301Z 2213/2312 VRB03KT P6SM SCT010
     FM221600 25006KT P6SM SCT040
     FM231000 19003KT P6SM SKC=



000
FTUS43 KDMX 221301 AAB
TAFOTM
TAF AMD
KOTM 221301Z 2213/2312 32004KT P6SM SCT030
     FM221600 24005KT P6SM FEW050
     FM230800 19004KT P6SM SKC=



000
FTUS43 KDMX 221301 AAB
TAFOTM
TAF AMD
KOTM 221301Z 2213/2312 32004KT P6SM SCT030
     FM221600 24005KT P6SM FEW050
     FM230800 19004KT P6SM SKC=



000
FTUS43 KDMX 221209 AAA
TAFOTM
TAF AMD
KOTM 221209Z 2212/2312 VRB04KT 2SM BR SKC
      TEMPO 2212/2214 1SM BR SCT002
     FM221400 32004KT P6SM SCT030
     FM221600 24005KT P6SM FEW050
     FM230800 19004KT P6SM SKC=



000
FTUS43 KDMX 221209 AAA
TAFOTM
TAF AMD
KOTM 221209Z 2212/2312 VRB04KT 2SM BR SKC
      TEMPO 2212/2214 1SM BR SCT002
     FM221400 32004KT P6SM SCT030
     FM221600 24005KT P6SM FEW050
     FM230800 19004KT P6SM SKC=



000
FTUS43 KDMX 221120
TAFMCW
TAF
KMCW 221120Z 2212/2312 32003KT 6SM BR SKC
      TEMPO 2212/2214 4SM BR SCT002
     FM221400 24006KT P6SM SCT040
     FM230800 19004KT P6SM SKC=



000
FTUS43 KDMX 221120
TAFFOD
TAF
KFOD 221120Z 2212/2312 VRB02KT 6SM BR SKC
      TEMPO 2212/2214 3SM BR SCT002
     FM221400 24005KT P6SM SCT050
     FM230600 18003KT P6SM SKC=



000
FTUS43 KDMX 221120
TAFDSM
TAF
KDSM 221120Z 2212/2312 VRB03KT 6SM BR SKC
     FM221400 24006KT P6SM SCT050
     FM230200 18004KT P6SM SKC=



000
FTUS43 KDMX 221120
TAFALO
TAF
KALO 221120Z 2212/2312 VRB03KT 1SM BR BKN002
      TEMPO 2212/2213 1/2SM FG BKN001
     FM221300 VRB02KT 3SM BR SCT010
     FM221400 VRB03KT P6SM SCT010
     FM221600 25006KT P6SM SCT040
     FM231000 19003KT P6SM SKC=



000
FTUS43 KDMX 221120
TAFOTM
TAF
KOTM 221120Z 2212/2312 32004KT P6SM SKC
     FM221600 24005KT P6SM FEW050
     FM230800 19004KT P6SM SKC=



000
FTUS43 KDMX 221120
TAFMCW
TAF
KMCW 221120Z 2212/2312 32003KT 6SM BR SKC
      TEMPO 2212/2214 4SM BR SCT002
     FM221400 24006KT P6SM SCT040
     FM230800 19004KT P6SM SKC=



000
FTUS43 KDMX 221120
TAFFOD
TAF
KFOD 221120Z 2212/2312 VRB02KT 6SM BR SKC
      TEMPO 2212/2214 3SM BR SCT002
     FM221400 24005KT P6SM SCT050
     FM230600 18003KT P6SM SKC=



000
FTUS43 KDMX 221120
TAFDSM
TAF
KDSM 221120Z 2212/2312 VRB03KT 6SM BR SKC
     FM221400 24006KT P6SM SCT050
     FM230200 18004KT P6SM SKC=



000
FTUS43 KDMX 221120
TAFOTM
TAF
KOTM 221120Z 2212/2312 32004KT P6SM SKC
     FM221600 24005KT P6SM FEW050
     FM230800 19004KT P6SM SKC=



000
FTUS43 KDMX 221120
TAFALO
TAF
KALO 221120Z 2212/2312 VRB03KT 1SM BR BKN002
      TEMPO 2212/2213 1/2SM FG BKN001
     FM221300 VRB02KT 3SM BR SCT010
     FM221400 VRB03KT P6SM SCT010
     FM221600 25006KT P6SM SCT040
     FM231000 19003KT P6SM SKC=



000
FTUS43 KDMX 221049 AAB
TAFALO
TAF AMD
KALO 221049Z 2211/2306 VRB03KT 1/2SM FG BKN002
      TEMPO 2211/2213 1/4SM FG BKN001
     FM221300 VRB02KT 5SM BR SCT010
     FM221400 VRB03KT P6SM SCT010
     FM221600 28006KT P6SM BKN035=



000
FTUS43 KDMX 221049 AAB
TAFALO
TAF AMD
KALO 221049Z 2211/2306 VRB03KT 1/2SM FG BKN002
      TEMPO 2211/2213 1/4SM FG BKN001
     FM221300 VRB02KT 5SM BR SCT010
     FM221400 VRB03KT P6SM SCT010
     FM221600 28006KT P6SM BKN035=



000
FTUS43 KDMX 221000 AAA
TAFALO
TAF AMD
KALO 221000Z 2210/2306 VRB03KT 5SM BR SKC
      TEMPO 2210/2213 3SM BR SCT002
     FM221600 28006KT P6SM BKN035=



000
FTUS43 KDMX 221000 AAA
TAFALO
TAF AMD
KALO 221000Z 2210/2306 VRB03KT 5SM BR SKC
      TEMPO 2210/2213 3SM BR SCT002
     FM221600 28006KT P6SM BKN035=



000
FTUS43 KDMX 220802 AAA
TAFFOD
TAF AMD
KFOD 220802Z 2208/2306 VRB02KT 1SM BR SCT002
      TEMPO 2208/2210 1/2SM FG BKN002
     FM221000 VRB02KT 1/2SM FG SCT002
      TEMPO 2211/2213 1/4SM FG BKN002
     FM221300 26005KT P6SM SCT030=



000
FTUS43 KDMX 220539
TAFDSM
TAF
KDSM 220539Z 2206/2306 34003KT P6SM SKC
      TEMPO 2209/2213 5SM BR
     FM221600 24006KT P6SM BKN035=



000
FTUS43 KDMX 220539
TAFMCW
TAF
KMCW 220539Z 2206/2306 32003KT P6SM SKC
      TEMPO 2209/2213 5SM BR
     FM221500 27006KT P6SM SCT030=



000
FTUS43 KDMX 220539
TAFMCW
TAF
KMCW 220539Z 2206/2306 32003KT P6SM SKC
      TEMPO 2209/2213 5SM BR
     FM221500 27006KT P6SM SCT030=



000
FTUS43 KDMX 220539
TAFALO
TAF
KALO 220539Z 2206/2306 32003KT P6SM SKC
      TEMPO 2209/2213 6SM BR
     FM221600 28006KT P6SM BKN035=



000
FTUS43 KDMX 220539
TAFFOD
TAF
KFOD 220539Z 2206/2306 33002KT P6SM SKC
      TEMPO 2209/2213 5SM BR
     FM221700 26005KT P6SM SCT030=



000
FTUS43 KDMX 220539
TAFOTM
TAF
KOTM 220539Z 2206/2306 32004KT P6SM SKC
      TEMPO 2209/2213 5SM BR
     FM221700 24005KT P6SM FEW035=



000
FTUS43 KDMX 220539
TAFFOD
TAF
KFOD 220539Z 2206/2306 33002KT P6SM SKC
      TEMPO 2209/2213 5SM BR
     FM221700 26005KT P6SM SCT030=



000
FTUS43 KDMX 220539
TAFDSM
TAF
KDSM 220539Z 2206/2306 34003KT P6SM SKC
      TEMPO 2209/2213 5SM BR
     FM221600 24006KT P6SM BKN035=



000
FTUS43 KDMX 220539
TAFALO
TAF
KALO 220539Z 2206/2306 32003KT P6SM SKC
      TEMPO 2209/2213 6SM BR
     FM221600 28006KT P6SM BKN035=



000
FTUS43 KDMX 220539
TAFOTM
TAF
KOTM 220539Z 2206/2306 32004KT P6SM SKC
      TEMPO 2209/2213 5SM BR
     FM221700 24005KT P6SM FEW035=



000
FTUS43 KDMX 220115 AAA
TAFOTM
TAF AMD
KOTM 220115Z 2201/2224 34005KT P6SM SKC
     FM221400 30005KT P6SM FEW040=



000
FTUS43 KDMX 220115 AAA
TAFOTM
TAF AMD
KOTM 220115Z 2201/2224 34005KT P6SM SKC
     FM221400 30005KT P6SM FEW040=



000
FTUS43 KDMX 220115 AAA
TAFALO
TAF AMD
KALO 220115Z 2201/2224 33005KT P6SM SKC
     FM220800 31003KT 6SM BR SKC
     FM221400 28007KT P6SM SCT035=



000
FTUS43 KDMX 220115 AAA
TAFALO
TAF AMD
KALO 220115Z 2201/2224 33005KT P6SM SKC
     FM220800 31003KT 6SM BR SKC
     FM221400 28007KT P6SM SCT035=



000
FTUS43 KDMX 212320
TAFMCW
TAF
KMCW 212320Z 2200/2224 34008KT P6SM SKC
     FM220800 30002KT 5SM BR SKC
     FM221400 25006KT P6SM FEW030=



000
FTUS43 KDMX 212320
TAFFOD
TAF
KFOD 212320Z 2200/2224 34005KT P6SM SKC
     FM220800 30002KT 5SM BR SKC
     FM221400 25005KT P6SM FEW030=



000
FTUS43 KDMX 212320
TAFDSM
TAF
KDSM 212320Z 2200/2224 35008KT P6SM SCT050
     FM220200 33003KT P6SM SKC
     FM221400 26006KT P6SM FEW040=



000
FTUS43 KDMX 212320
TAFALO
TAF
KALO 212320Z 2200/2224 33007KT P6SM SKC
     FM220800 31003KT 6SM BR SKC
     FM221400 28007KT P6SM SCT035=



000
FTUS43 KDMX 212320
TAFOTM
TAF
KOTM 212320Z 2200/2224 36012KT P6SM SCT050
     FM220200 34005KT P6SM SKC
     FM221400 30005KT P6SM FEW040=



000
FTUS43 KDMX 212320
TAFMCW
TAF
KMCW 212320Z 2200/2224 34008KT P6SM SKC
     FM220800 30002KT 5SM BR SKC
     FM221400 25006KT P6SM FEW030=



000
FTUS43 KDMX 212320
TAFDSM
TAF
KDSM 212320Z 2200/2224 35008KT P6SM SCT050
     FM220200 33003KT P6SM SKC
     FM221400 26006KT P6SM FEW040=



000
FTUS43 KDMX 212320
TAFOTM
TAF
KOTM 212320Z 2200/2224 36012KT P6SM SCT050
     FM220200 34005KT P6SM SKC
     FM221400 30005KT P6SM FEW040=



000
FTUS43 KDMX 212320
TAFFOD
TAF
KFOD 212320Z 2200/2224 34005KT P6SM SKC
     FM220800 30002KT 5SM BR SKC
     FM221400 25005KT P6SM FEW030=



000
FTUS43 KDMX 212320
TAFALO
TAF
KALO 212320Z 2200/2224 33007KT P6SM SKC
     FM220800 31003KT 6SM BR SKC
     FM221400 28007KT P6SM SCT035=



000
FTUS43 KDMX 212302 AAC
TAFDSM
TAF AMD
KDSM 212302Z 2123/2218 35010KT P6SM BKN050
     FM220000 35007KT P6SM SCT050
     FM221400 24006KT P6SM FEW035=



000
FTUS43 KDMX 212302 AAC
TAFDSM
TAF AMD
KDSM 212302Z 2123/2218 35010KT P6SM BKN050
     FM220000 35007KT P6SM SCT050
     FM221400 24006KT P6SM FEW035=



000
FTUS43 KDMX 212301 AAC
TAFALO
TAF AMD
KALO 212301Z 2123/2218 34012KT P6SM SCT040
     FM220100 33007KT P6SM SCT035
     FM221400 26007KT P6SM FEW035=



000
FTUS43 KDMX 212300 AAA
TAFFOD
TAF AMD
KFOD 212300Z 2123/2218 35008KT P6SM FEW050
     FM220000 34005KT P6SM SKC
     FM221400 22005KT P6SM FEW025=



000
FTUS43 KDMX 212300 AAA
TAFFOD
TAF AMD
KFOD 212300Z 2123/2218 35008KT P6SM FEW050
     FM220000 34005KT P6SM SKC
     FM221400 22005KT P6SM FEW025=



000
FTUS43 KDMX 212111 AAB
TAFDSM
TAF AMD
KDSM 212111Z 2121/2218 33016KT P6SM BKN050
     FM220000 35007KT P6SM SCT050
     FM221400 24006KT P6SM FEW035=



000
FTUS43 KDMX 212111 AAB
TAFDSM
TAF AMD
KDSM 212111Z 2121/2218 33016KT P6SM BKN050
     FM220000 35007KT P6SM SCT050
     FM221400 24006KT P6SM FEW035=



000
FTUS43 KDMX 212005 AAA
TAFOTM
TAF AMD
KOTM 212005Z 2120/2218 36015G22KT P6SM SCT050
     FM220000 35005KT P6SM SKC
     FM221400 28005KT P6SM FEW035=



000
FTUS43 KDMX 212005 AAA
TAFOTM
TAF AMD
KOTM 212005Z 2120/2218 36015G22KT P6SM SCT050
     FM220000 35005KT P6SM SKC
     FM221400 28005KT P6SM FEW035=



000
FTUS43 KDMX 212005 AAB
TAFALO
TAF AMD
KALO 212005Z 2120/2218 34015G23KT P6SM BKN035
     FM220000 33013KT P6SM SCT040
     FM220100 33007KT P6SM SCT035
     FM221400 26007KT P6SM FEW035=



000
FTUS43 KDMX 212005 AAB
TAFALO
TAF AMD
KALO 212005Z 2120/2218 34015G23KT P6SM BKN035
     FM220000 33013KT P6SM SCT040
     FM220100 33007KT P6SM SCT035
     FM221400 26007KT P6SM FEW035=



000
FTUS43 KDMX 211905 AAA
TAFDSM
TAF AMD
KDSM 211905Z 2119/2218 01012G21KT P6SM SCT045
     FM220000 35003KT P6SM SKC
     FM221400 24006KT P6SM FEW035=



000
FTUS43 KDMX 211905 AAA
TAFDSM
TAF AMD
KDSM 211905Z 2119/2218 01012G21KT P6SM SCT045
     FM220000 35003KT P6SM SKC
     FM221400 24006KT P6SM FEW035=



000
FTUS43 KDMX 211904 AAA
TAFMCW
TAF AMD
KMCW 211904Z 2119/2218 34013G23KT P6SM SCT022 BKN040
     FM220000 31004KT P6SM SCT050
     FM221400 22005KT P6SM FEW030=



000
FTUS43 KDMX 211837 AAA
TAFALO
TAF AMD
KALO 211837Z 2119/2218 34014KT P6SM SCT025 BKN035
     FM220000 33013KT P6SM SCT040
     FM220100 33007KT P6SM SCT035
     FM221400 26007KT P6SM FEW035=



000
FTUS43 KDMX 211732
TAFFOD
TAF
KFOD 211732Z 2118/2218 34011G15KT P6SM BKN040
     FM220000 34005KT P6SM SKC
     FM221400 22005KT P6SM FEW025=



000
FTUS43 KDMX 211732
TAFOTM
TAF
KOTM 211732Z 2118/2218 33018G24KT P6SM SCT050
     FM220000 35005KT P6SM SKC
     FM221400 28005KT P6SM FEW035=



000
FTUS43 KDMX 211732
TAFALO
TAF
KALO 211732Z 2118/2218 33017KT P6SM OVC023
     FM211900 33017G28KT P6SM SCT020 BKN040
     FM220000 33013KT P6SM SCT040
     FM220100 33007KT P6SM SCT035
     FM221400 26007KT P6SM FEW035=



000
FTUS43 KDMX 211732
TAFDSM
TAF
KDSM 211732Z 2118/2218 33017G23KT P6SM SCT040
     FM220000 35003KT P6SM SKC
     FM221400 24006KT P6SM FEW035=



000
FTUS43 KDMX 211732
TAFMCW
TAF
KMCW 211732Z 2118/2218 34013KT P6SM BKN022 BKN040
     FM220000 31004KT P6SM SCT050
     FM221400 22005KT P6SM FEW030=



000
FTUS43 KDMX 211732
TAFDSM
TAF
KDSM 211732Z 2118/2218 33017G23KT P6SM SCT040
     FM220000 35003KT P6SM SKC
     FM221400 24006KT P6SM FEW035=



000
FTUS43 KDMX 211732
TAFALO
TAF
KALO 211732Z 2118/2218 33017KT P6SM OVC023
     FM211900 33017G28KT P6SM SCT020 BKN040
     FM220000 33013KT P6SM SCT040
     FM220100 33007KT P6SM SCT035
     FM221400 26007KT P6SM FEW035=



000
FTUS43 KDMX 211732
TAFFOD
TAF
KFOD 211732Z 2118/2218 34011G15KT P6SM BKN040
     FM220000 34005KT P6SM SKC
     FM221400 22005KT P6SM FEW025=



000
FTUS43 KDMX 211732
TAFOTM
TAF
KOTM 211732Z 2118/2218 33018G24KT P6SM SCT050
     FM220000 35005KT P6SM SKC
     FM221400 28005KT P6SM FEW035=



000
FTUS43 KDMX 211732
TAFMCW
TAF
KMCW 211732Z 2118/2218 34013KT P6SM BKN022 BKN040
     FM220000 31004KT P6SM SCT050
     FM221400 22005KT P6SM FEW030=



000
FTUS43 KDMX 211641 AAB
TAFFOD
TAF AMD
KFOD 211641Z 2117/2212 34011KT P6SM BKN040
     FM220000 36005KT P6SM SKC=



000
FTUS43 KDMX 211616 AAC
TAFMCW
TAF AMD
KMCW 211616Z 2116/2212 34015KT P6SM BKN022 BKN040
     FM220000 31004KT P6SM SCT050=



000
FTUS43 KDMX 211616 AAC
TAFMCW
TAF AMD
KMCW 211616Z 2116/2212 34015KT P6SM BKN022 BKN040
     FM220000 31004KT P6SM SCT050=



000
FTUS43 KDMX 211515 AAA
TAFOTM
TAF AMD
KOTM 211515Z 2115/2212 32020G25KT P6SM SKC
     FM211600 33018G24KT P6SM SCT050
     FM220000 35005KT P6SM SKC=



000
FTUS43 KDMX 211515 AAA
TAFOTM
TAF AMD
KOTM 211515Z 2115/2212 32020G25KT P6SM SKC
     FM211600 33018G24KT P6SM SCT050
     FM220000 35005KT P6SM SKC=



000
FTUS43 KDMX 211514 AAB
TAFALO
TAF AMD
KALO 211514Z 2115/2212 33017KT P6SM OVC022
     FM211900 33017G28KT P6SM SCT020 BKN040
     FM220000 33013KT P6SM SCT040
     FM220100 33007KT P6SM SCT035=



000
FTUS43 KDMX 211514 AAB
TAFALO
TAF AMD
KALO 211514Z 2115/2212 33017KT P6SM OVC022
     FM211900 33017G28KT P6SM SCT020 BKN040
     FM220000 33013KT P6SM SCT040
     FM220100 33007KT P6SM SCT035=



000
FTUS43 KDMX 211415 AAB
TAFMCW
TAF AMD
KMCW 211415Z 2114/2212 34015G23KT P6SM BKN015
     FM211500 34015G22KT P6SM BKN015 BKN040
     FM220000 31004KT P6SM SCT050=



000
FTUS43 KDMX 211415 AAB
TAFMCW
TAF AMD
KMCW 211415Z 2114/2212 34015G23KT P6SM BKN015
     FM211500 34015G22KT P6SM BKN015 BKN040
     FM220000 31004KT P6SM SCT050=



000
FTUS43 KDMX 211402 AAA
TAFFOD
TAF AMD
KFOD 211402Z 2114/2212 34010G17KT P6SM SKC
     FM211500 34012G22KT P6SM BKN040
     FM220000 36005KT P6SM SKC=



000
FTUS43 KDMX 211402 AAA
TAFFOD
TAF AMD
KFOD 211402Z 2114/2212 34010G17KT P6SM SKC
     FM211500 34012G22KT P6SM BKN040
     FM220000 36005KT P6SM SKC=



000
FTUS43 KDMX 211401 AAA
TAFALO
TAF AMD
KALO 211401Z 2114/2212 33017KT P6SM BKN019
     FM211600 33017G28KT P6SM SCT019 BKN040
     FM220000 33013KT P6SM SCT040
     FM220100 33007KT P6SM SCT035=



000
FTUS43 KDMX 211258 AAA
TAFMCW
TAF AMD
KMCW 211258Z 2113/2212 30015G23KT P6SM SKC
     FM211500 34015G22KT P6SM BKN040
     FM220000 31004KT P6SM SCT050=



000
FTUS43 KDMX 211258 AAA
TAFMCW
TAF AMD
KMCW 211258Z 2113/2212 30015G23KT P6SM SKC
     FM211500 34015G22KT P6SM BKN040
     FM220000 31004KT P6SM SCT050=



000
FTUS43 KDMX 211120
TAFALO
TAF
KALO 211120Z 2112/2212 30008KT P6SM SKC
     FM211600 33014G22KT P6SM BKN040
     FM220000 33004KT P6SM SCT040=



000
FTUS43 KDMX 211120
TAFMCW
TAF
KMCW 211120Z 2112/2212 30010KT P6SM SKC
     FM211500 34015G22KT P6SM BKN040
     FM220000 31004KT P6SM SCT050=



000
FTUS43 KDMX 211120
TAFOTM
TAF
KOTM 211120Z 2112/2212 30010KT P6SM SKC
     FM211600 33015G20KT P6SM BKN050
     FM220000 35005KT P6SM SKC=



000
FTUS43 KDMX 211120
TAFDSM
TAF
KDSM 211120Z 2112/2212 30010KT P6SM SKC
     FM211500 33014G19KT P6SM BKN040
     FM220000 35003KT P6SM SKC=



000
FTUS43 KDMX 211120
TAFFOD
TAF
KFOD 211120Z 2112/2212 31005KT P6SM SKC
     FM211500 34011G19KT P6SM BKN040
     FM220000 36005KT P6SM SKC=



000
FTUS43 KDMX 211120
TAFALO
TAF
KALO 211120Z 2112/2212 30008KT P6SM SKC
     FM211600 33014G22KT P6SM BKN040
     FM220000 33004KT P6SM SCT040=



000
FTUS43 KDMX 211120
TAFMCW
TAF
KMCW 211120Z 2112/2212 30010KT P6SM SKC
     FM211500 34015G22KT P6SM BKN040
     FM220000 31004KT P6SM SCT050=



000
FTUS43 KDMX 211120
TAFFOD
TAF
KFOD 211120Z 2112/2212 31005KT P6SM SKC
     FM211500 34011G19KT P6SM BKN040
     FM220000 36005KT P6SM SKC=



000
FTUS43 KDMX 211120
TAFOTM
TAF
KOTM 211120Z 2112/2212 30010KT P6SM SKC
     FM211600 33015G20KT P6SM BKN050
     FM220000 35005KT P6SM SKC=



000
FTUS43 KDMX 211120
TAFDSM
TAF
KDSM 211120Z 2112/2212 30010KT P6SM SKC
     FM211500 33014G19KT P6SM BKN040
     FM220000 35003KT P6SM SKC=



000
FTUS43 KDMX 210539
TAFFOD
TAF
KFOD 210539Z 2106/2206 31005KT P6SM SKC
     FM211500 34011G19KT P6SM BKN040
     FM220000 01003KT P6SM SKC=



000
FTUS43 KDMX 210539
TAFMCW
TAF
KMCW 210539Z 2106/2206 30009KT P6SM SKC
     FM211500 34015G22KT P6SM BKN040
     FM220000 31003KT P6SM SKC=



000
FTUS43 KDMX 210539
TAFFOD
TAF
KFOD 210539Z 2106/2206 31005KT P6SM SKC
     FM211500 34011G19KT P6SM BKN040
     FM220000 01003KT P6SM SKC=



000
FTUS43 KDMX 210539
TAFALO
TAF
KALO 210539Z 2106/2206 32008KT P6SM SKC
     FM211600 33014G22KT P6SM BKN040
     FM220000 32003KT P6SM SCT040=



000
FTUS43 KDMX 210539
TAFOTM
TAF
KOTM 210539Z 2106/2206 30008KT P6SM SKC
     FM211600 33015G20KT P6SM BKN050
     FM220000 35005KT P6SM SKC=



000
FTUS43 KDMX 210539
TAFMCW
TAF
KMCW 210539Z 2106/2206 30009KT P6SM SKC
     FM211500 34015G22KT P6SM BKN040
     FM220000 31003KT P6SM SKC=



000
FTUS43 KDMX 210539
TAFDSM
TAF
KDSM 210539Z 2106/2206 32010KT P6SM SKC
     FM211500 33014G19KT P6SM BKN040
     FM220000 35003KT P6SM SKC=



000
FTUS43 KDMX 210539
TAFOTM
TAF
KOTM 210539Z 2106/2206 30008KT P6SM SKC
     FM211600 33015G20KT P6SM BKN050
     FM220000 35005KT P6SM SKC=



000
FTUS43 KDMX 210539
TAFALO
TAF
KALO 210539Z 2106/2206 32008KT P6SM SKC
     FM211600 33014G22KT P6SM BKN040
     FM220000 32003KT P6SM SCT040=



000
FTUS43 KDMX 210539
TAFDSM
TAF
KDSM 210539Z 2106/2206 32010KT P6SM SKC
     FM211500 33014G19KT P6SM BKN040
     FM220000 35003KT P6SM SKC=



000
FTUS43 KDMX 210315 AAC
TAFALO
TAF AMD
KALO 210315Z 2103/2124 31009KT P6SM SKC
     FM211600 34014G22KT P6SM BKN040=



000
FTUS43 KDMX 210315 AAC
TAFALO
TAF AMD
KALO 210315Z 2103/2124 31009KT P6SM SKC
     FM211600 34014G22KT P6SM BKN040=



000
FTUS43 KDMX 210315 AAB
TAFALO
TAF AMD
KALO 210315Z 2103/2124 31009KT P6SM SKC
     FM210700 30012G16KT P6SM SCT150
     FM211600 34014G22KT P6SM BKN040=



000
FTUS43 KDMX 210315 AAB
TAFALO
TAF AMD
KALO 210315Z 2103/2124 31009KT P6SM SKC
     FM210700 30012G16KT P6SM SCT150
     FM211600 34014G22KT P6SM BKN040=



000
FTUS43 KDMX 210314 AAC
TAFFOD
TAF AMD
KFOD 210314Z 2103/2124 31007KT P6SM SKC
     FM211500 34012G20KT P6SM BKN040=



000
FTUS43 KDMX 210314 AAC
TAFFOD
TAF AMD
KFOD 210314Z 2103/2124 31007KT P6SM SKC
     FM211500 34012G20KT P6SM BKN040=



000
FTUS43 KDMX 210205 AAA
TAFDSM
TAF AMD
KDSM 210205Z 2102/2124 27008KT P6SM FEW150
     FM210300 34019G27KT P6SM BKN100
     FM210500 32010KT P6SM SKC
     FM211500 33014G19KT P6SM BKN040=



000
FTUS43 KDMX 210205 AAA
TAFDSM
TAF AMD
KDSM 210205Z 2102/2124 27008KT P6SM FEW150
     FM210300 34019G27KT P6SM BKN100
     FM210500 32010KT P6SM SKC
     FM211500 33014G19KT P6SM BKN040=



000
FTUS43 KDMX 210201 AAB
TAFFOD
TAF AMD
KFOD 210201Z 2102/2124 33012G19KT P6SM SCT100
     FM210400 30009KT P6SM SKC
     FM211500 34012G20KT P6SM BKN040=



000
FTUS43 KDMX 210201 AAB
TAFFOD
TAF AMD
KFOD 210201Z 2102/2124 33012G19KT P6SM SCT100
     FM210400 30009KT P6SM SKC
     FM211500 34012G20KT P6SM BKN040=



000
FTUS43 KDMX 210159 AAB
TAFMCW
TAF AMD
KMCW 210159Z 2102/2124 32014G22KT P6SM SKC
     FM210400 30009KT P6SM SKC
     FM211500 34015G22KT P6SM BKN040=



000
FTUS43 KDMX 210159 AAB
TAFMCW
TAF AMD
KMCW 210159Z 2102/2124 32014G22KT P6SM SKC
     FM210400 30009KT P6SM SKC
     FM211500 34015G22KT P6SM BKN040=



000
FTUS43 KDMX 210047 AAA
TAFALO
TAF AMD
KALO 210047Z 2101/2124 26011KT P6SM SCT150
     FM210200 33022G32KT P6SM -SHRA BKN070 BKN150
     FM210300 32018G25KT P6SM SCT100 BKN150
     FM210700 30012G16KT P6SM SCT150
     FM211600 34014G22KT P6SM BKN040=



000
FTUS43 KDMX 210047 AAA
TAFALO
TAF AMD
KALO 210047Z 2101/2124 26011KT P6SM SCT150
     FM210200 33022G32KT P6SM -SHRA BKN070 BKN150
     FM210300 32018G25KT P6SM SCT100 BKN150
     FM210700 30012G16KT P6SM SCT150
     FM211600 34014G22KT P6SM BKN040=



000
FTUS43 KDMX 210044 AAA
TAFFOD
TAF AMD
KFOD 210044Z 2101/2124 33019G26KT P6SM SCT100
      TEMPO 2101/2102 34024G35KT BKN100
     FM211500 34012G20KT P6SM BKN040=



000
FTUS43 KDMX 210044 AAA
TAFFOD
TAF AMD
KFOD 210044Z 2101/2124 33019G26KT P6SM SCT100
      TEMPO 2101/2102 34024G35KT BKN100
     FM211500 34012G20KT P6SM BKN040=



000
FTUS43 KDMX 210010 AAA
TAFMCW
TAF AMD
KMCW 210010Z 2100/2124 28011G16KT P6SM VCTS SCT040 BKN060CB OVC150
      TEMPO 2100/2101 33027G40KT -TSRA BKN040CB
     FM210300 32015G22KT P6SM SCT150
     FM211500 34015G22KT P6SM BKN040=



000
FTUS43 KDMX 210010 AAA
TAFMCW
TAF AMD
KMCW 210010Z 2100/2124 28011G16KT P6SM VCTS SCT040 BKN060CB OVC150
      TEMPO 2100/2101 33027G40KT -TSRA BKN040CB
     FM210300 32015G22KT P6SM SCT150
     FM211500 34015G22KT P6SM BKN040=



000
FTUS43 KDMX 202323
TAFMCW
TAF
KMCW 202323Z 2100/2124 28011G16KT P6SM VCTS SCT040 BKN060CB OVC150
     FM210300 32015G22KT P6SM SCT150
     FM211500 34015G22KT P6SM BKN040=



000
FTUS43 KDMX 202323
TAFALO
TAF
KALO 202323Z 2100/2124 28011KT P6SM FEW060 BKN150
     FM210100 30011KT P6SM VCTS BKN050CB BKN150
     FM210400 30012G16KT P6SM SCT150
     FM211600 34014G22KT P6SM BKN040=



000
FTUS43 KDMX 202323
TAFDSM
TAF
KDSM 202323Z 2100/2124 30008KT P6SM FEW250
     FM210400 32012KT P6SM FEW080
     FM211500 33014G19KT P6SM BKN040=



000
FTUS43 KDMX 202323
TAFFOD
TAF
KFOD 202323Z 2100/2124 30011KT P6SM SCT100
     FM211500 34012G20KT P6SM BKN040=



000
FTUS43 KDMX 202323
TAFOTM
TAF
KOTM 202323Z 2100/2124 29008KT P6SM FEW050
     FM211600 33015G20KT P6SM BKN050=



000
FTUS43 KDMX 202323
TAFMCW
TAF
KMCW 202323Z 2100/2124 28011G16KT P6SM VCTS SCT040 BKN060CB OVC150
     FM210300 32015G22KT P6SM SCT150
     FM211500 34015G22KT P6SM BKN040=



000
FTUS43 KDMX 202323
TAFDSM
TAF
KDSM 202323Z 2100/2124 30008KT P6SM FEW250
     FM210400 32012KT P6SM FEW080
     FM211500 33014G19KT P6SM BKN040=



000
FTUS43 KDMX 202323
TAFFOD
TAF
KFOD 202323Z 2100/2124 30011KT P6SM SCT100
     FM211500 34012G20KT P6SM BKN040=



000
FTUS43 KDMX 202323
TAFALO
TAF
KALO 202323Z 2100/2124 28011KT P6SM FEW060 BKN150
     FM210100 30011KT P6SM VCTS BKN050CB BKN150
     FM210400 30012G16KT P6SM SCT150
     FM211600 34014G22KT P6SM BKN040=



000
FTUS43 KDMX 202323
TAFOTM
TAF
KOTM 202323Z 2100/2124 29008KT P6SM FEW050
     FM211600 33015G20KT P6SM BKN050=



000
FTUS43 KDMX 202208 AAB
TAFMCW
TAF AMD
KMCW 202208Z 2022/2118 28012G17KT P6SM FEW070
     FM210000 31010KT P6SM VCTS SCT080CB BKN150
     FM210300 32012KT P6SM SCT120
     FM211500 34015G22KT P6SM BKN040=



000
FTUS43 KDMX 202125 AAA
TAFOTM
TAF AMD
KOTM 202125Z 2021/2118 25011G16KT P6SM SCT040
     FM202300 30008KT P6SM FEW120
     FM211500 33014G19KT P6SM SCT060=



000
FTUS43 KDMX 202125 AAA
TAFOTM
TAF AMD
KOTM 202125Z 2021/2118 25011G16KT P6SM SCT040
     FM202300 30008KT P6SM FEW120
     FM211500 33014G19KT P6SM SCT060=



000
FTUS43 KDMX 202123 AAA
TAFDSM
TAF AMD
KDSM 202123Z 2021/2118 30014G18KT P6SM SCT040
     FM202300 31007KT P6SM FEW100
     FM211500 33012G18KT P6SM BKN060=



000
FTUS43 KDMX 202123 AAA
TAFDSM
TAF AMD
KDSM 202123Z 2021/2118 30014G18KT P6SM SCT040
     FM202300 31007KT P6SM FEW100
     FM211500 33012G18KT P6SM BKN060=



000
FTUS43 KDMX 202123 AAA
TAFMCW
TAF AMD
KMCW 202123Z 2021/2118 28014G22KT P6SM FEW060
     FM210000 31010KT P6SM VCTS SCT080CB BKN150
     FM210300 32012KT P6SM SCT120
     FM211500 34015G22KT P6SM BKN040=



000
FTUS43 KDMX 202123 AAA
TAFMCW
TAF AMD
KMCW 202123Z 2021/2118 28014G22KT P6SM FEW060
     FM210000 31010KT P6SM VCTS SCT080CB BKN150
     FM210300 32012KT P6SM SCT120
     FM211500 34015G22KT P6SM BKN040=



000
FTUS43 KDMX 202123 AAB
TAFDSM
TAF AMD
KDSM 202123Z 2021/2118 28014G18KT P6SM SCT040
     FM202300 31007KT P6SM FEW100
     FM211500 33012G18KT P6SM BKN060=



000
FTUS43 KDMX 202123 AAB
TAFDSM
TAF AMD
KDSM 202123Z 2021/2118 28014G18KT P6SM SCT040
     FM202300 31007KT P6SM FEW100
     FM211500 33012G18KT P6SM BKN060=



000
FTUS43 KDMX 202122 AAA
TAFFOD
TAF AMD
KFOD 202122Z 2021/2118 28012G18KT P6SM FEW070
     FM210000 30006KT P6SM SCT100
     FM211500 34012G20KT P6SM SCT060=



000
FTUS43 KDMX 202122 AAA
TAFFOD
TAF AMD
KFOD 202122Z 2021/2118 28012G18KT P6SM FEW070
     FM210000 30006KT P6SM SCT100
     FM211500 34012G20KT P6SM SCT060=



000
FTUS43 KDMX 201734
TAFALO
TAF
KALO 201734Z 2018/2118 28011G18KT P6SM FEW050 SCT110
     FM210100 30010KT P6SM VCTS BKN070CB BKN120
     FM210400 30011KT P6SM SCT150
     FM211500 34012G20KT P6SM BKN050=



000
FTUS43 KDMX 201734
TAFFOD
TAF
KFOD 201734Z 2018/2118 26011G16KT P6SM SKC
     FM210000 30006KT P6SM SCT100
     FM211500 34012G20KT P6SM SCT060=



000
FTUS43 KDMX 201734
TAFOTM
TAF
KOTM 201734Z 2018/2118 27013G18KT P6SM SCT020 BKN050
     FM202300 30008KT P6SM FEW120
     FM211500 33014G19KT P6SM SCT060=



000
FTUS43 KDMX 201734
TAFOTM
TAF
KOTM 201734Z 2018/2118 27013G18KT P6SM SCT020 BKN050
     FM202300 30008KT P6SM FEW120
     FM211500 33014G19KT P6SM SCT060=



000
FTUS43 KDMX 201734
TAFMCW
TAF
KMCW 201734Z 2018/2118 28012KT P6SM SKC
     FM210000 31010KT P6SM VCTS SCT080CB BKN150
     FM210300 32012KT P6SM SCT120
     FM211500 34015G22KT P6SM BKN040=



000
FTUS43 KDMX 201734
TAFDSM
TAF
KDSM 201734Z 2018/2118 30012KT P6SM SCT040 BKN150
     FM202300 31007KT P6SM FEW100
     FM211500 33012G18KT P6SM BKN060=



000
FTUS43 KDMX 201734
TAFDSM
TAF
KDSM 201734Z 2018/2118 30012KT P6SM SCT040 BKN150
     FM202300 31007KT P6SM FEW100
     FM211500 33012G18KT P6SM BKN060=



000
FTUS43 KDMX 201734
TAFALO
TAF
KALO 201734Z 2018/2118 28011G18KT P6SM FEW050 SCT110
     FM210100 30010KT P6SM VCTS BKN070CB BKN120
     FM210400 30011KT P6SM SCT150
     FM211500 34012G20KT P6SM BKN050=



000
FTUS43 KDMX 201734
TAFMCW
TAF
KMCW 201734Z 2018/2118 28012KT P6SM SKC
     FM210000 31010KT P6SM VCTS SCT080CB BKN150
     FM210300 32012KT P6SM SCT120
     FM211500 34015G22KT P6SM BKN040=



000
FTUS43 KDMX 201734
TAFFOD
TAF
KFOD 201734Z 2018/2118 26011G16KT P6SM SKC
     FM210000 30006KT P6SM SCT100
     FM211500 34012G20KT P6SM SCT060=



000
FTUS43 KDMX 201352 AAA
TAFMCW
TAF AMD
KMCW 201352Z 2014/2112 24016G22KT 3/4SM +RA BR VCTS BKN022CB BKN060
     FM201420 25015G23KT P6SM VCTS SCT025CB BKN050
     FM201600 30012G18KT P6SM SCT060 BKN250
     FM210000 30010KT P6SM SKC=



000
FTUS43 KDMX 201352 AAA
TAFMCW
TAF AMD
KMCW 201352Z 2014/2112 24016G22KT 3/4SM +RA BR VCTS BKN022CB BKN060
     FM201420 25015G23KT P6SM VCTS SCT025CB BKN050
     FM201600 30012G18KT P6SM SCT060 BKN250
     FM210000 30010KT P6SM SKC=



000
FTUS43 KDMX 201120
TAFDSM
TAF
KDSM 201120Z 2012/2112 23006KT P6SM -TSRA SCT020 BKN040CB OVC100
     FM201300 28011KT P6SM VCSH SCT060 BKN100
     FM201500 29012KT P6SM SCT100 BKN250
     FM202300 31007KT P6SM SKC=



000
FTUS43 KDMX 201120
TAFALO
TAF
KALO 201120Z 2012/2112 24011KT P6SM VCSH SCT060 BKN100 OVC250
     FM201500 29012G18KT P6SM SCT050 BKN250
     FM210000 29007KT P6SM SKC=



000
FTUS43 KDMX 201120
TAFOTM
TAF
KOTM 201120Z 2012/2112 22010KT P6SM -SHRA FEW021 BKN045 OVC090
      TEMPO 2013/2015 6SM -TSRA SCT021 OVC040CB
     FM201700 28010KT P6SM SCT040 SCT100=



000
FTUS43 KDMX 201120
TAFMCW
TAF
KMCW 201120Z 2012/2112 26012KT P6SM VCSH BKN100 BKN250
     FM201500 30012G18KT P6SM SCT060 BKN250
     FM210000 30010KT P6SM SKC=



000
FTUS43 KDMX 201120
TAFALO
TAF
KALO 201120Z 2012/2112 24011KT P6SM VCSH SCT060 BKN100 OVC250
     FM201500 29012G18KT P6SM SCT050 BKN250
     FM210000 29007KT P6SM SKC=



000
FTUS43 KDMX 201120
TAFOTM
TAF
KOTM 201120Z 2012/2112 22010KT P6SM -SHRA FEW021 BKN045 OVC090
      TEMPO 2013/2015 6SM -TSRA SCT021 OVC040CB
     FM201700 28010KT P6SM SCT040 SCT100=



000
FTUS43 KDMX 201120
TAFFOD
TAF
KFOD 201120Z 2012/2112 25006KT P6SM VCSH SCT100 BKN250
     FM201600 30009G15KT P6SM SCT050 SCT100
     FM210000 30006KT P6SM SKC=



000
FTUS43 KDMX 201120
TAFMCW
TAF
KMCW 201120Z 2012/2112 26012KT P6SM VCSH BKN100 BKN250
     FM201500 30012G18KT P6SM SCT060 BKN250
     FM210000 30010KT P6SM SKC=



000
FTUS43 KDMX 201120
TAFFOD
TAF
KFOD 201120Z 2012/2112 25006KT P6SM VCSH SCT100 BKN250
     FM201600 30009G15KT P6SM SCT050 SCT100
     FM210000 30006KT P6SM SKC=



    US Dept of Commerce
    National Oceanic and Atmospheric Administration
    National Weather Service
    1325 East West Highway
    Silver Spring, MD 20910
    Page Author: NWS Internet Services Team
Disclaimer
Information Quality
Credits
Glossary
Privacy Policy
Freedom of Information Act (FOIA)
About Us
Career Opportunities